Horizon II — 3FHB4 — position and weather

sailwx.info

Track history (hours):
 
Tides and Currents Weather Stations Pressure Air Temp Water Temp Dewpoint Dewpoint Depression Visibility Wind Speed Wind Dir Waves Ship Positions

Horizon II

Last reported at 2018-Apr-26 05:00 UTC. Time now 2018-Apr-26 11:23 UTC.
Position N 57°49' E 010°29'.

Length 255 m; draft 14.5 m.

Type: Cargo ship. MMSI: 357568000.

Date/timePositionNaut miles runAvg speedWind from/ knotsBaromVisibWave heightAir tempDewpointWater temp
2018-Apr-26 05:00N 57°49' E 010°29'4 8.7
2018-Apr-26 04:30N 57°49' E 010°37'4 8.6
2018-Apr-26 04:00N 57°49' E 010°45'4 8.3
2018-Apr-26 03:30N 57°48' E 010°52'4 8.7
2018-Apr-26 03:00N 57°44' E 010°54'510.9
2018-Apr-26 02:30N 57°40' E 011°01'611.2
2018-Apr-26 02:00N 57°36' E 011°09'611.2
2018-Apr-26 01:30N 57°33' E 011°17'510.9
2018-Apr-26 01:00N 57°29' E 011°23'611.5
2018-Apr-26 00:30N 57°23' E 011°28'611.8
2018-Apr-26 00:00N 57°18' E 011°32'611.5
2018-Apr-25 23:30N 57°13' E 011°36'611.6
2018-Apr-25 23:00N 57°07' E 011°39'108 9.9
2018-Apr-25 12:04N 55°21' E 011°02'810.0
2018-Apr-25 11:16N 55°13' E 011°06'2 9.2
2018-Apr-25 11:00N 55°11' E 011°04'4 7.7
2018-Apr-25 10:30N 55°09' E 010°59'5 9.3
2018-Apr-25 10:00N 55°04' E 010°60'4 8.9
2018-Apr-25 09:30N 54°59' E 010°59'4 8.8
2018-Apr-25 09:00N 54°56' E 010°53'5 9.4
2018-Apr-25 08:30N 54°52' E 010°50'5 9.0
2018-Apr-25 08:00N 54°48' E 010°50'4 8.8
2018-Apr-25 07:30N 54°44' E 010°47'4 8.6
2018-Apr-25 07:00N 54°40' E 010°49'611.1
2018-Apr-25 06:30N 54°37' E 010°58'510.9
2018-Apr-25 06:00N 54°36' E 011°07'611.2
2018-Apr-25 05:30N 54°35' E 011°16'611.8
2018-Apr-25 05:00N 54°32' E 011°25'611.7
2018-Apr-25 04:30N 54°29' E 011°35'611.4
2018-Apr-25 04:00N 54°27' E 011°44'1610.7
2018-Apr-25 02:29N 54°28' E 012°12'510.5
2018-Apr-25 02:00N 54°32' E 012°14'62 9.2
2018-Apr-24 19:16N 55°01' E 013°49'1610.0
2018-Apr-24 17:42N 55°10' E 014°12'210.2
2018-Apr-24 17:29N 55°11' E 014°15'510.0
2018-Apr-24 16:58N 55°15' E 014°20'5 9.9
2018-Apr-24 16:30N 55°19' E 014°25'5 9.8
2018-Apr-24 16:00N 55°23' E 014°31'5 9.8
2018-Apr-24 15:30N 55°26' E 014°36'7 9.8
2018-Apr-24 14:45N 55°29' E 014°48'4 9.9
2018-Apr-24 14:24N 55°31' E 014°54'510.1
2018-Apr-24 13:53N 55°33' E 015°02'510.2
2018-Apr-24 13:26N 55°35' E 015°10'410.4
2018-Apr-24 13:00N 55°36' E 015°17'510.3
2018-Apr-24 12:30N 55°37' E 015°26'510.4
2018-Apr-24 12:00N 55°38' E 015°35'510.6
2018-Apr-24 11:30N 55°40' E 015°44'510.6
2018-Apr-24 11:00N 55°41' E 015°53'510.6
2018-Apr-24 10:30N 55°43' E 016°02'510.8
2018-Apr-24 10:00N 55°44' E 016°11'510.7
2018-Apr-24 09:30N 55°46' E 016°20'510.8
2018-Apr-24 09:00N 55°47' E 016°30'510.7
2018-Apr-24 08:30N 55°49' E 016°39'610.5
2018-Apr-24 07:58N 55°50' E 016°48'29510.5
2018-Apr-23 03:44N 59°33' E 022°50'411.2
2018-Apr-23 03:24N 59°34' E 022°57'411.2
2018-Apr-23 03:00N 59°36' E 023°05'611.3
2018-Apr-23 02:30N 59°38' E 023°16'611.5
2018-Apr-23 02:00N 59°39' E 023°27'611.5
2018-Apr-23 01:30N 59°41' E 023°38'611.5
2018-Apr-23 01:00N 59°42' E 023°49'611.4
2018-Apr-23 00:30N 59°44' E 023°60'1011.6
2018-Apr-22 23:41N 59°46' E 024°18'211.6
2018-Apr-22 23:30N 59°47' E 024°22'611.5
2018-Apr-22 23:00N 59°48' E 024°33'611.5
2018-Apr-22 22:30N 59°49' E 024°44'611.4
2018-Apr-22 22:01N 59°50' E 024°55'611.1
2018-Apr-22 21:26N 59°52' E 025°08'510.5
2018-Apr-22 21:00N 59°53' E 025°17'2811.1
2018-Apr-22 18:28N 59°58' E 026°12'510.8
2018-Apr-22 18:00N 59°60' E 026°21'510.9
2018-Apr-22 17:30N 60°01' E 026°32'510.9
2018-Apr-22 17:00N 60°01' E 026°43'611.3
2018-Apr-22 16:30N 60°00' E 026°54'510.6
2018-Apr-22 16:00N 59°60' E 027°05'611.2
2018-Apr-22 15:30N 60°03' E 027°14'611.3
2018-Apr-22 15:00N 60°06' E 027°24'611.2
2018-Apr-22 14:30N 60°08' E 027°34'611.2
2018-Apr-22 14:00N 60°11' E 027°43'510.1
2018-Apr-22 13:30N 60°11' E 027°54'510.9
2018-Apr-22 13:01N 60°10' E 028°04'510.5
2018-Apr-22 12:30N 60°08' E 028°14'5 9.6
2018-Apr-22 12:01N 60°06' E 028°22'510.0
2018-Apr-22 11:30N 60°03' E 028°31'4 8.5
2018-Apr-22 11:00N 59°60' E 028°36'5 9.0
2018-Apr-22 10:30N 59°55' E 028°34'510.2
2018-Apr-22 10:00N 59°52' E 028°28'611.3
2018-Apr-22 09:30N 59°46' E 028°25'4 8.0
2018-Apr-22 09:00N 59°42' E 028°25'1 1.4
2018-Apr-22 08:30N 59°41' E 028°25'0 0.1
2018-Apr-22 07:59N 59°41' E 028°25'0 0.0
2018-Apr-22 07:29N 59°41' E 028°25'0 0.0
2018-Apr-22 06:59N 59°41' E 028°25'0 0.0
2018-Apr-22 06:29N 59°41' E 028°25'0 0.0
2018-Apr-22 05:59N 59°41' E 028°25'0 0.0
2018-Apr-22 05:29N 59°41' E 028°25'0 0.0
2018-Apr-22 04:59N 59°41' E 028°25'0 0.0
2018-Apr-22 04:29N 59°41' E 028°25'0 0.0
2018-Apr-22 03:47N 59°41' E 028°25'0 0.0
2018-Apr-22 03:20N 59°41' E 028°25'0 0.0
2018-Apr-22 02:50N 59°41' E 028°25'0 0.0
2018-Apr-22 02:20N 59°41' E 028°25'0 0.0
2018-Apr-22 01:53N 59°41' E 028°25'0 0.0
2018-Apr-22 01:23N 59°41' E 028°25'0 0.0
2018-Apr-22 00:53N 59°41' E 028°25'0 0.0
2018-Apr-22 00:23N 59°41' E 028°25'0 0.0
2018-Apr-21 23:53N 59°41' E 028°25'0 0.0
2018-Apr-21 23:23N 59°41' E 028°25'0 0.0
2018-Apr-21 22:53N 59°41' E 028°25'0 0.0
2018-Apr-21 22:23N 59°41' E 028°25'0 0.0
2018-Apr-21 21:56N 59°41' E 028°25'0 0.0
2018-Apr-21 21:26N 59°41' E 028°25'0 0.0
2018-Apr-21 20:56N 59°41' E 028°25'0 0.0
2018-Apr-21 20:26N 59°41' E 028°25'0 0.0
2018-Apr-21 19:56N 59°41' E 028°25'0 0.0
2018-Apr-21 19:26N 59°41' E 028°25'0 0.0
2018-Apr-21 18:56N 59°41' E 028°25'0 0.0
2018-Apr-21 18:29N 59°41' E 028°25'0 0.0
2018-Apr-21 17:59N 59°41' E 028°25'0 0.0
2018-Apr-21 17:29N 59°41' E 028°25'0 0.0
2018-Apr-21 16:56N 59°41' E 028°25'0 0.0
2018-Apr-21 16:29N 59°41' E 028°25'0 0.0
2018-Apr-21 15:32N 59°41' E 028°25'0 0.0
2018-Apr-21 15:29N 59°41' E 028°25'0 0.0
2018-Apr-21 14:59N 59°41' E 028°25'0 0.0
2018-Apr-21 14:29N 59°41' E 028°25'0 0.0
2018-Apr-21 13:59N 59°41' E 028°25'0 0.0
2018-Apr-21 13:29N 59°41' E 028°25'0 0.0
2018-Apr-21 12:59N 59°41' E 028°25'0 0.0
2018-Apr-21 12:29N 59°41' E 028°25'0 0.0
2018-Apr-21 11:50N 59°41' E 028°25'0 0.0
2018-Apr-21 11:29N 59°41' E 028°25'0 0.0
2018-Apr-21 10:50N 59°41' E 028°25'0 0.0
2018-Apr-21 10:23N 59°41' E 028°25'0 0.0
2018-Apr-21 09:53N 59°41' E 028°25'0 0.0
2018-Apr-21 09:23N 59°41' E 028°25'0 0.0
2018-Apr-21 08:53N 59°41' E 028°25'0 0.0
2018-Apr-21 08:08N 59°41' E 028°25'0 0.0
2018-Apr-21 07:53N 59°41' E 028°25'0 0.0
2018-Apr-21 07:26N 59°41' E 028°25'0 0.0
2018-Apr-21 06:56N 59°41' E 028°25'0 0.0
2018-Apr-21 06:26N 59°41' E 028°25'0 0.0
2018-Apr-21 05:56N 59°41' E 028°25'0 0.0
2018-Apr-21 05:26N 59°41' E 028°25'0 0.0
2018-Apr-21 04:56N 59°41' E 028°25'0 0.0
2018-Apr-21 04:26N 59°41' E 028°25'0 0.0
2018-Apr-21 03:56N 59°41' E 028°25'0 0.0
2018-Apr-21 03:29N 59°41' E 028°25'0 0.0
2018-Apr-21 02:59N 59°41' E 028°25'0 0.0
2018-Apr-21 02:29N 59°41' E 028°25'0 0.0
2018-Apr-21 01:59N 59°41' E 028°25'0 0.0
2018-Apr-21 01:29N 59°41' E 028°25'0 0.0
2018-Apr-21 00:59N 59°41' E 028°25'0 0.0
2018-Apr-21 00:29N 59°41' E 028°25'0 0.0
2018-Apr-20 23:59N 59°41' E 028°25'0 0.0
2018-Apr-20 23:29N 59°41' E 028°25'0 0.0
2018-Apr-20 22:59N 59°41' E 028°25'0 0.0
2018-Apr-20 22:29N 59°41' E 028°25'0 0.0
2018-Apr-20 21:59N 59°41' E 028°25'0 0.0
2018-Apr-20 21:29N 59°41' E 028°25'0 0.0
2018-Apr-20 20:59N 59°41' E 028°25'0 0.0
2018-Apr-20 20:20N 59°41' E 028°25'0 0.0
2018-Apr-20 19:50N 59°41' E 028°25'0 0.0
2018-Apr-20 19:26N 59°41' E 028°25'0 0.0
2018-Apr-20 18:53N 59°41' E 028°25'0 0.0
2018-Apr-20 18:23N 59°41' E 028°25'0 0.0
2018-Apr-20 17:59N 59°41' E 028°25'0 0.0
2018-Apr-20 17:29N 59°41' E 028°25'0 0.0
2018-Apr-20 16:59N 59°41' E 028°25'0 0.0
2018-Apr-20 16:29N 59°41' E 028°25'0 0.0
2018-Apr-20 15:56N 59°41' E 028°25'0 0.0
2018-Apr-20 15:29N 59°41' E 028°25'0 0.0
2018-Apr-20 14:59N 59°41' E 028°25'0 0.0
2018-Apr-20 14:26N 59°41' E 028°25'0 0.0
2018-Apr-20 13:56N 59°41' E 028°25'0 0.0
2018-Apr-20 13:26N 59°41' E 028°25'0 0.0
2018-Apr-20 12:59N 59°41' E 028°25'0 0.0
2018-Apr-20 12:31N 59°41' E 028°25'0 0.3
2018-Apr-20 12:00N 59°41' E 028°25'0 0.0
2018-Apr-20 11:30N 59°41' E 028°25'0 0.0
2018-Apr-20 11:00N 59°41' E 028°25'0 0.0
2018-Apr-20 10:30N 59°41' E 028°25'0 0.0
2018-Apr-20 10:00N 59°41' E 028°25'0 0.0
2018-Apr-20 09:30N 59°41' E 028°25'0 0.0
2018-Apr-20 09:00N 59°41' E 028°25'0 0.0
2018-Apr-20 08:30N 59°41' E 028°25'0 0.0
2018-Apr-20 08:00N 59°41' E 028°25'0 0.0
2018-Apr-20 07:30N 59°41' E 028°25'0 0.0
2018-Apr-20 07:00N 59°41' E 028°25'0 0.0
2018-Apr-20 06:30N 59°41' E 028°25'0 0.0
2018-Apr-20 06:00N 59°41' E 028°25'0 0.0
2018-Apr-20 05:30N 59°41' E 028°25'0 0.0
2018-Apr-20 05:00N 59°41' E 028°25'0 0.0
2018-Apr-20 04:21N 59°41' E 028°25'0 0.0
2018-Apr-20 03:57N 59°41' E 028°25'0 0.0
2018-Apr-20 03:27N 59°41' E 028°25'0 0.0
2018-Apr-20 03:00N 59°41' E 028°25'0 0.0
2018-Apr-20 02:30N 59°41' E 028°25'0 0.0
2018-Apr-20 02:00N 59°41' E 028°25'0 0.0
2018-Apr-20 01:30N 59°41' E 028°25'0 0.0
2018-Apr-20 01:00N 59°41' E 028°25'0 0.0
2018-Apr-20 00:30N 59°41' E 028°25'0 0.0
2018-Apr-20 00:00N 59°41' E 028°25'0 0.0
2018-Apr-19 23:30N 59°41' E 028°25'0 0.0
2018-Apr-19 23:00N 59°41' E 028°25'0 0.0
2018-Apr-19 22:27N 59°41' E 028°25'0 0.0
2018-Apr-19 22:00N 59°41' E 028°25'0 0.0
2018-Apr-19 21:27N 59°41' E 028°25'0 0.0
2018-Apr-19 21:00N 59°41' E 028°25'0 0.0
2018-Apr-19 20:30N 59°41' E 028°25'0 0.0
2018-Apr-19 20:00N 59°41' E 028°25'0 0.0
2018-Apr-19 19:30N 59°41' E 028°25'0 0.0
2018-Apr-19 19:00N 59°41' E 028°25'0 0.0
2018-Apr-19 18:30N 59°41' E 028°25'0 0.0
2018-Apr-19 18:00N 59°41' E 028°25'0 0.0
2018-Apr-19 17:30N 59°41' E 028°25'0 0.0
2018-Apr-19 17:00N 59°41' E 028°25'0 0.0
2018-Apr-19 16:30N 59°41' E 028°25'0 0.0
2018-Apr-19 16:00N 59°41' E 028°25'0 0.0
2018-Apr-19 15:30N 59°41' E 028°25'0 0.0
2018-Apr-19 15:00N 59°41' E 028°25'0 0.0
2018-Apr-19 14:30N 59°41' E 028°25'0 0.0
2018-Apr-19 14:00N 59°41' E 028°25'0 0.0
2018-Apr-19 13:30N 59°41' E 028°25'0 0.0
2018-Apr-19 13:00N 59°41' E 028°25'0 0.0
2018-Apr-19 12:30N 59°41' E 028°25'0 0.2
2018-Apr-19 12:00N 59°41' E 028°25'2 3.7
2018-Apr-19 11:30N 59°43' E 028°24'4 7.7
2018-Apr-19 11:01N 59°47' E 028°24'5 9.5
2018-Apr-19 10:31N 59°51' E 028°27'4 8.8
2018-Apr-19 10:00N 59°55' E 028°32'2 4.4
2018-Apr-19 09:31N 59°55' E 028°37'1 2.9
2018-Apr-19 09:00N 59°56' E 028°39'0 0.2
2018-Apr-19 08:30N 59°56' E 028°40'0 0.1
2018-Apr-19 07:57N 59°56' E 028°40'0 0.1
2018-Apr-19 07:30N 59°56' E 028°40'0 0.1
2018-Apr-19 07:00N 59°55' E 028°40'0 0.0
2018-Apr-19 06:30N 59°55' E 028°40'0 0.0
2018-Apr-19 06:00N 59°55' E 028°40'0 0.0
2018-Apr-19 05:30N 59°55' E 028°40'0 0.0
2018-Apr-19 05:00N 59°55' E 028°40'0 0.0
2018-Apr-19 04:27N 59°55' E 028°40'0 0.0
2018-Apr-19 04:00N 59°56' E 028°40'0 0.0
2018-Apr-19 03:30N 59°56' E 028°40'0 0.0
2018-Apr-19 02:57N 59°56' E 028°40'0 0.0
2018-Apr-19 02:24N 59°56' E 028°40'0 0.0
2018-Apr-19 02:00N 59°56' E 028°40'0 0.0
2018-Apr-19 01:24N 59°56' E 028°40'0 0.0
2018-Apr-19 00:57N 59°56' E 028°40'0 0.0
2018-Apr-19 00:30N 59°56' E 028°40'0 0.0
2018-Apr-18 23:57N 59°56' E 028°40'0 0.0
2018-Apr-18 23:30N 59°56' E 028°40'0 0.0
2018-Apr-18 22:57N 59°56' E 028°40'0 0.0
2018-Apr-18 22:27N 59°56' E 028°40'0 0.0
2018-Apr-18 21:58N 59°56' E 028°40'0 0.1
2018-Apr-18 21:30N 59°56' E 028°40'0 0.0
2018-Apr-18 21:00N 59°56' E 028°40'0 0.0
2018-Apr-18 20:30N 59°56' E 028°40'0 0.1
2018-Apr-18 20:00N 59°56' E 028°40'0 0.1
2018-Apr-18 19:15N 59°56' E 028°40'0 0.0
2018-Apr-18 19:00N 59°56' E 028°40'0 0.1
2018-Apr-18 18:30N 59°56' E 028°40'0 0.2
2018-Apr-18 18:00N 59°55' E 028°40'0 0.2
2018-Apr-18 17:18N 59°55' E 028°40'0 0.1
2018-Apr-18 17:00N 59°55' E 028°40'0 0.0
2018-Apr-18 16:30N 59°55' E 028°40'0 0.1
2018-Apr-18 16:00N 59°55' E 028°40'0 0.1
2018-Apr-18 15:30N 59°55' E 028°40'0 0.0
2018-Apr-18 15:00N 59°55' E 028°40'0 0.1
2018-Apr-18 14:30N 59°55' E 028°40'0 0.0
2018-Apr-18 14:00N 59°55' E 028°40'0 0.0
2018-Apr-18 13:30N 59°55' E 028°40'0 0.0
2018-Apr-18 13:00N 59°55' E 028°40'0 0.1
2018-Apr-18 12:30N 59°55' E 028°40'0 0.1
2018-Apr-18 12:00N 59°55' E 028°40'0 0.0
2018-Apr-18 11:30N 59°55' E 028°40'0 0.0
2018-Apr-18 11:00N 59°55' E 028°40'0 0.1
2018-Apr-18 10:30N 59°55' E 028°40'0 0.2
2018-Apr-18 09:57N 59°55' E 028°39'0 0.1
2018-Apr-18 09:30N 59°55' E 028°39'0 0.0
2018-Apr-18 09:00N 59°55' E 028°39'0 0.0
2018-Apr-18 08:27N 59°55' E 028°39'0 0.0
2018-Apr-18 07:57N 59°55' E 028°39'0 0.0
2018-Apr-18 07:24N 59°55' E 028°39'0 0.0
2018-Apr-18 06:57N 59°55' E 028°39'0 0.0
2018-Apr-18 06:27N 59°55' E 028°39'0 0.0
2018-Apr-18 05:57N 59°55' E 028°39'0 0.0
2018-Apr-18 05:27N 59°55' E 028°39'0 0.0
2018-Apr-18 05:00N 59°55' E 028°39'0 0.0
2018-Apr-18 04:30N 59°55' E 028°39'0 0.0
2018-Apr-18 04:00N 59°55' E 028°40'0 0.0
2018-Apr-18 03:27N 59°55' E 028°40'0 0.0
2018-Apr-18 02:57N 59°55' E 028°40'0 0.1
2018-Apr-18 02:27N 59°55' E 028°40'0 0.0
2018-Apr-18 01:57N 59°55' E 028°40'0 0.0
2018-Apr-18 01:30N 59°55' E 028°40'0 0.0
2018-Apr-18 00:54N 59°55' E 028°40'0 0.0
2018-Apr-18 00:30N 59°55' E 028°40'0 0.0
2018-Apr-18 00:00N 59°55' E 028°40'0 0.0
2018-Apr-17 23:30N 59°55' E 028°40'0 0.0
2018-Apr-17 22:54N 59°55' E 028°40'0 0.0
2018-Apr-17 22:21N 59°55' E 028°40'0 0.0
2018-Apr-17 22:00N 59°55' E 028°40'0 0.0
2018-Apr-17 21:27N 59°55' E 028°40'0 0.0
2018-Apr-17 20:54N 59°55' E 028°40'0 0.0
2018-Apr-17 20:24N 59°55' E 028°40'0 0.0
2018-Apr-17 19:54N 59°55' E 028°40'0 0.0
2018-Apr-17 19:24N 59°55' E 028°40'0 0.0
2018-Apr-17 18:54N 59°55' E 028°40'0 0.0
2018-Apr-17 18:27N 59°55' E 028°40'0 0.0
2018-Apr-17 17:57N 59°55' E 028°40'0 0.0
2018-Apr-17 17:27N 59°55' E 028°40'0 0.0
2018-Apr-17 16:54N 59°55' E 028°40'0 0.0
2018-Apr-17 16:27N 59°55' E 028°40'0 0.0
2018-Apr-17 15:57N 59°55' E 028°40'0 0.0
2018-Apr-17 15:27N 59°55' E 028°40'0 0.0
2018-Apr-17 15:00N 59°55' E 028°40'0 0.0
2018-Apr-17 14:30N 59°55' E 028°40'0 0.0
2018-Apr-17 14:00N 59°55' E 028°40'0 0.0
2018-Apr-17 13:30N 59°55' E 028°40'0 0.0
2018-Apr-17 13:00N 59°55' E 028°40'0 0.0
2018-Apr-17 12:30N 59°55' E 028°40'0 0.0
2018-Apr-17 12:00N 59°55' E 028°40'0 0.0
2018-Apr-17 11:30N 59°55' E 028°40'0 0.0
2018-Apr-17 10:48N 59°55' E 028°40'0 0.0
2018-Apr-17 10:18N 59°55' E 028°40'0 0.0
2018-Apr-17 10:00N 59°55' E 028°40'0 0.0
2018-Apr-17 09:30N 59°55' E 028°40'0 0.0
2018-Apr-17 09:00N 59°55' E 028°40'0 0.2
2018-Apr-17 08:18N 59°56' E 028°40'0 0.3
2018-Apr-17 08:00N 59°56' E 028°39'0 0.2
2018-Apr-17 07:21N 59°56' E 028°39'0 0.0
2018-Apr-17 06:51N 59°56' E 028°39'0 0.1
2018-Apr-17 06:21N 59°55' E 028°39'0 0.0
2018-Apr-17 05:51N 59°55' E 028°39'0 0.1
2018-Apr-17 05:24N 59°55' E 028°39'0 0.0
2018-Apr-17 04:48N 59°56' E 028°39'0 0.0
2018-Apr-17 04:24N 59°56' E 028°39'0 0.0
2018-Apr-17 03:54N 59°56' E 028°39'0 0.0
2018-Apr-17 03:24N 59°56' E 028°39'0 0.1
2018-Apr-17 02:57N 59°56' E 028°39'0 0.0
2018-Apr-17 02:27N 59°56' E 028°39'0 0.0
2018-Apr-17 01:57N 59°56' E 028°39'0 0.0
2018-Apr-17 01:24N 59°56' E 028°39'0 0.0
2018-Apr-17 00:56N 59°56' E 028°39'0 0.1
2018-Apr-17 00:30N 59°56' E 028°39'0 0.0
2018-Apr-17 00:00N 59°56' E 028°39'0 0.0
2018-Apr-16 23:30N 59°55' E 028°39'0 0.0
2018-Apr-16 22:59N 59°55' E 028°39'0 0.0
2018-Apr-16 22:30N 59°56' E 028°39'0 0.1
2018-Apr-16 21:56N 59°56' E 028°39'0 0.0
2018-Apr-16 21:29N 59°56' E 028°39'0 0.0
2018-Apr-16 20:54N 59°56' E 028°39'0 0.0
2018-Apr-16 20:30N 59°56' E 028°39'0 0.0
2018-Apr-16 20:00N 59°56' E 028°39'0 0.1
2018-Apr-16 19:30N 59°56' E 028°39'0 0.0
2018-Apr-16 19:00N 59°56' E 028°39'0 0.1
2018-Apr-16 18:30N 59°56' E 028°39'0 0.0
2018-Apr-16 18:00N 59°56' E 028°39'0 0.1
2018-Apr-16 17:26N 59°56' E 028°39'0 0.1
2018-Apr-16 17:00N 59°56' E 028°39'0 0.0
2018-Apr-16 16:30N 59°56' E 028°39'0 0.1
2018-Apr-16 16:00N 59°55' E 028°39'0 0.1
2018-Apr-16 15:30N 59°55' E 028°39'0 0.1
2018-Apr-16 15:00N 59°55' E 028°39'0 0.1
2018-Apr-16 14:30N 59°55' E 028°39'0 0.0
2018-Apr-16 13:54N 59°55' E 028°39'0 0.1
2018-Apr-16 13:24N 59°55' E 028°39'0 0.0
2018-Apr-16 12:53N 59°55' E 028°39'0 0.0
2018-Apr-16 12:30N 59°55' E 028°39'0 0.1
2018-Apr-16 11:57N 59°55' E 028°39'0 0.0
2018-Apr-16 11:12N 59°55' E 028°39'0 0.0
2018-Apr-16 11:00N 59°55' E 028°39'0 0.1
2018-Apr-16 10:30N 59°55' E 028°40'0 0.1
2018-Apr-16 09:57N 59°55' E 028°40'0 0.1
2018-Apr-16 09:26N 59°55' E 028°40'0 0.1
2018-Apr-16 08:56N 59°55' E 028°40'0 0.0
2018-Apr-16 08:30N 59°55' E 028°40'0 0.0
2018-Apr-16 07:56N 59°55' E 028°40'0 0.0
2018-Apr-16 07:26N 59°55' E 028°40'0 0.0
2018-Apr-16 07:00N 59°55' E 028°40'0 0.0
2018-Apr-16 06:29N 59°55' E 028°40'0 0.0
2018-Apr-16 05:59N 59°55' E 028°40'0 0.0
2018-Apr-16 05:30N 59°55' E 028°40'  
Track history (hours):
 
Tides and Currents Weather Stations Pressure Air Temp Water Temp Dewpoint Dewpoint Depression Visibility Wind Speed Wind Dir Waves Ship Positions

Horizon II

Last reported at 2018-Apr-26 05:00 UTC. Time now 2018-Apr-26 11:23 UTC.
Position N 57°49' E 010°29'.

Length 255 m; draft 14.5 m.

Type: Cargo ship. MMSI: 357568000.

Date/timePositionNaut miles runAvg speedWind from/ knotsBaromVisibWave heightAir tempDewpointWater temp
2018-Apr-26 05:00N 57°49' E 010°29'4 8.7
2018-Apr-26 04:30N 57°49' E 010°37'4 8.6
2018-Apr-26 04:00N 57°49' E 010°45'4 8.3
2018-Apr-26 03:30N 57°48' E 010°52'4 8.7
2018-Apr-26 03:00N 57°44' E 010°54'510.9
2018-Apr-26 02:30N 57°40' E 011°01'611.2
2018-Apr-26 02:00N 57°36' E 011°09'611.2
2018-Apr-26 01:30N 57°33' E 011°17'510.9
2018-Apr-26 01:00N 57°29' E 011°23'611.5
2018-Apr-26 00:30N 57°23' E 011°28'611.8
2018-Apr-26 00:00N 57°18' E 011°32'611.5
2018-Apr-25 23:30N 57°13' E 011°36'611.6
2018-Apr-25 23:00N 57°07' E 011°39'108 9.9
2018-Apr-25 12:04N 55°21' E 011°02'810.0
2018-Apr-25 11:16N 55°13' E 011°06'2 9.2
2018-Apr-25 11:00N 55°11' E 011°04'4 7.7
2018-Apr-25 10:30N 55°09' E 010°59'5 9.3
2018-Apr-25 10:00N 55°04' E 010°60'4 8.9
2018-Apr-25 09:30N 54°59' E 010°59'4 8.8
2018-Apr-25 09:00N 54°56' E 010°53'5 9.4
2018-Apr-25 08:30N 54°52' E 010°50'5 9.0
2018-Apr-25 08:00N 54°48' E 010°50'4 8.8
2018-Apr-25 07:30N 54°44' E 010°47'4 8.6
2018-Apr-25 07:00N 54°40' E 010°49'611.1
2018-Apr-25 06:30N 54°37' E 010°58'510.9
2018-Apr-25 06:00N 54°36' E 011°07'611.2
2018-Apr-25 05:30N 54°35' E 011°16'611.8
2018-Apr-25 05:00N 54°32' E 011°25'611.7
2018-Apr-25 04:30N 54°29' E 011°35'611.4
2018-Apr-25 04:00N 54°27' E 011°44'1610.7
2018-Apr-25 02:29N 54°28' E 012°12'510.5
2018-Apr-25 02:00N 54°32' E 012°14'62 9.2
2018-Apr-24 19:16N 55°01' E 013°49'1610.0
2018-Apr-24 17:42N 55°10' E 014°12'210.2
2018-Apr-24 17:29N 55°11' E 014°15'510.0
2018-Apr-24 16:58N 55°15' E 014°20'5 9.9
2018-Apr-24 16:30N 55°19' E 014°25'5 9.8
2018-Apr-24 16:00N 55°23' E 014°31'5 9.8
2018-Apr-24 15:30N 55°26' E 014°36'7 9.8
2018-Apr-24 14:45N 55°29' E 014°48'4 9.9
2018-Apr-24 14:24N 55°31' E 014°54'510.1
2018-Apr-24 13:53N 55°33' E 015°02'510.2
2018-Apr-24 13:26N 55°35' E 015°10'410.4
2018-Apr-24 13:00N 55°36' E 015°17'510.3
2018-Apr-24 12:30N 55°37' E 015°26'510.4
2018-Apr-24 12:00N 55°38' E 015°35'510.6
2018-Apr-24 11:30N 55°40' E 015°44'510.6
2018-Apr-24 11:00N 55°41' E 015°53'510.6
2018-Apr-24 10:30N 55°43' E 016°02'510.8
2018-Apr-24 10:00N 55°44' E 016°11'510.7
2018-Apr-24 09:30N 55°46' E 016°20'510.8
2018-Apr-24 09:00N 55°47' E 016°30'510.7
2018-Apr-24 08:30N 55°49' E 016°39'610.5
2018-Apr-24 07:58N 55°50' E 016°48'29510.5
2018-Apr-23 03:44N 59°33' E 022°50'411.2
2018-Apr-23 03:24N 59°34' E 022°57'411.2
2018-Apr-23 03:00N 59°36' E 023°05'611.3
2018-Apr-23 02:30N 59°38' E 023°16'611.5
2018-Apr-23 02:00N 59°39' E 023°27'611.5
2018-Apr-23 01:30N 59°41' E 023°38'611.5
2018-Apr-23 01:00N 59°42' E 023°49'611.4
2018-Apr-23 00:30N 59°44' E 023°60'1011.6
2018-Apr-22 23:41N 59°46' E 024°18'211.6
2018-Apr-22 23:30N 59°47' E 024°22'611.5
2018-Apr-22 23:00N 59°48' E 024°33'611.5
2018-Apr-22 22:30N 59°49' E 024°44'611.4
2018-Apr-22 22:01N 59°50' E 024°55'611.1
2018-Apr-22 21:26N 59°52' E 025°08'510.5
2018-Apr-22 21:00N 59°53' E 025°17'2811.1
2018-Apr-22 18:28N 59°58' E 026°12'510.8
2018-Apr-22 18:00N 59°60' E 026°21'510.9
2018-Apr-22 17:30N 60°01' E 026°32'510.9
2018-Apr-22 17:00N 60°01' E 026°43'611.3
2018-Apr-22 16:30N 60°00' E 026°54'510.6
2018-Apr-22 16:00N 59°60' E 027°05'611.2
2018-Apr-22 15:30N 60°03' E 027°14'611.3
2018-Apr-22 15:00N 60°06' E 027°24'611.2
2018-Apr-22 14:30N 60°08' E 027°34'611.2
2018-Apr-22 14:00N 60°11' E 027°43'510.1
2018-Apr-22 13:30N 60°11' E 027°54'510.9
2018-Apr-22 13:01N 60°10' E 028°04'510.5
2018-Apr-22 12:30N 60°08' E 028°14'5 9.6
2018-Apr-22 12:01N 60°06' E 028°22'510.0
2018-Apr-22 11:30N 60°03' E 028°31'4 8.5
2018-Apr-22 11:00N 59°60' E 028°36'5 9.0
2018-Apr-22 10:30N 59°55' E 028°34'510.2
2018-Apr-22 10:00N 59°52' E 028°28'611.3
2018-Apr-22 09:30N 59°46' E 028°25'4 8.0
2018-Apr-22 09:00N 59°42' E 028°25'1 1.4
2018-Apr-22 08:30N 59°41' E 028°25'0 0.1
2018-Apr-22 07:59N 59°41' E 028°25'0 0.0
2018-Apr-22 07:29N 59°41' E 028°25'0 0.0
2018-Apr-22 06:59N 59°41' E 028°25'0 0.0
2018-Apr-22 06:29N 59°41' E 028°25'0 0.0
2018-Apr-22 05:59N 59°41' E 028°25'0 0.0
2018-Apr-22 05:29N 59°41' E 028°25'0 0.0
2018-Apr-22 04:59N 59°41' E 028°25'0 0.0
2018-Apr-22 04:29N 59°41' E 028°25'0 0.0
2018-Apr-22 03:47N 59°41' E 028°25'0 0.0
2018-Apr-22 03:20N 59°41' E 028°25'0 0.0
2018-Apr-22 02:50N 59°41' E 028°25'0 0.0
2018-Apr-22 02:20N 59°41' E 028°25'0 0.0
2018-Apr-22 01:53N 59°41' E 028°25'0 0.0
2018-Apr-22 01:23N 59°41' E 028°25'0 0.0
2018-Apr-22 00:53N 59°41' E 028°25'0 0.0
2018-Apr-22 00:23N 59°41' E 028°25'0 0.0
2018-Apr-21 23:53N 59°41' E 028°25'0 0.0
2018-Apr-21 23:23N 59°41' E 028°25'0 0.0
2018-Apr-21 22:53N 59°41' E 028°25'0 0.0
2018-Apr-21 22:23N 59°41' E 028°25'0 0.0
2018-Apr-21 21:56N 59°41' E 028°25'0 0.0
2018-Apr-21 21:26N 59°41' E 028°25'0 0.0
2018-Apr-21 20:56N 59°41' E 028°25'0 0.0
2018-Apr-21 20:26N 59°41' E 028°25'0 0.0
2018-Apr-21 19:56N 59°41' E 028°25'0 0.0
2018-Apr-21 19:26N 59°41' E 028°25'0 0.0
2018-Apr-21 18:56N 59°41' E 028°25'0 0.0
2018-Apr-21 18:29N 59°41' E 028°25'0 0.0
2018-Apr-21 17:59N 59°41' E 028°25'0 0.0
2018-Apr-21 17:29N 59°41' E 028°25'0 0.0
2018-Apr-21 16:56N 59°41' E 028°25'0 0.0
2018-Apr-21 16:29N 59°41' E 028°25'0 0.0
2018-Apr-21 15:32N 59°41' E 028°25'0 0.0
2018-Apr-21 15:29N 59°41' E 028°25'0 0.0
2018-Apr-21 14:59N 59°41' E 028°25'0 0.0
2018-Apr-21 14:29N 59°41' E 028°25'0 0.0
2018-Apr-21 13:59N 59°41' E 028°25'0 0.0
2018-Apr-21 13:29N 59°41' E 028°25'0 0.0
2018-Apr-21 12:59N 59°41' E 028°25'0 0.0
2018-Apr-21 12:29N 59°41' E 028°25'0 0.0
2018-Apr-21 11:50N 59°41' E 028°25'0 0.0
2018-Apr-21 11:29N 59°41' E 028°25'0 0.0
2018-Apr-21 10:50N 59°41' E 028°25'0 0.0
2018-Apr-21 10:23N 59°41' E 028°25'0 0.0
2018-Apr-21 09:53N 59°41' E 028°25'0 0.0
2018-Apr-21 09:23N 59°41' E 028°25'0 0.0
2018-Apr-21 08:53N 59°41' E 028°25'0 0.0
2018-Apr-21 08:08N 59°41' E 028°25'0 0.0
2018-Apr-21 07:53N 59°41' E 028°25'0 0.0
2018-Apr-21 07:26N 59°41' E 028°25'0 0.0
2018-Apr-21 06:56N 59°41' E 028°25'0 0.0
2018-Apr-21 06:26N 59°41' E 028°25'0 0.0
2018-Apr-21 05:56N 59°41' E 028°25'0 0.0
2018-Apr-21 05:26N 59°41' E 028°25'0 0.0
2018-Apr-21 04:56N 59°41' E 028°25'0 0.0
2018-Apr-21 04:26N 59°41' E 028°25'0 0.0
2018-Apr-21 03:56N 59°41' E 028°25'0 0.0
2018-Apr-21 03:29N 59°41' E 028°25'0 0.0
2018-Apr-21 02:59N 59°41' E 028°25'0 0.0
2018-Apr-21 02:29N 59°41' E 028°25'0 0.0
2018-Apr-21 01:59N 59°41' E 028°25'0 0.0
2018-Apr-21 01:29N 59°41' E 028°25'0 0.0
2018-Apr-21 00:59N 59°41' E 028°25'0 0.0
2018-Apr-21 00:29N 59°41' E 028°25'0 0.0
2018-Apr-20 23:59N 59°41' E 028°25'0 0.0
2018-Apr-20 23:29N 59°41' E 028°25'0 0.0
2018-Apr-20 22:59N 59°41' E 028°25'0 0.0
2018-Apr-20 22:29N 59°41' E 028°25'0 0.0
2018-Apr-20 21:59N 59°41' E 028°25'0 0.0
2018-Apr-20 21:29N 59°41' E 028°25'0 0.0
2018-Apr-20 20:59N 59°41' E 028°25'0 0.0
2018-Apr-20 20:20N 59°41' E 028°25'0 0.0
2018-Apr-20 19:50N 59°41' E 028°25'0 0.0
2018-Apr-20 19:26N 59°41' E 028°25'0 0.0
2018-Apr-20 18:53N 59°41' E 028°25'0 0.0
2018-Apr-20 18:23N 59°41' E 028°25'0 0.0
2018-Apr-20 17:59N 59°41' E 028°25'0 0.0
2018-Apr-20 17:29N 59°41' E 028°25'0 0.0
2018-Apr-20 16:59N 59°41' E 028°25'0 0.0
2018-Apr-20 16:29N 59°41' E 028°25'0 0.0
2018-Apr-20 15:56N 59°41' E 028°25'0 0.0
2018-Apr-20 15:29N 59°41' E 028°25'0 0.0
2018-Apr-20 14:59N 59°41' E 028°25'0 0.0
2018-Apr-20 14:26N 59°41' E 028°25'0 0.0
2018-Apr-20 13:56N 59°41' E 028°25'0 0.0
2018-Apr-20 13:26N 59°41' E 028°25'0 0.0
2018-Apr-20 12:59N 59°41' E 028°25'0 0.0
2018-Apr-20 12:31N 59°41' E 028°25'0 0.3
2018-Apr-20 12:00N 59°41' E 028°25'0 0.0
2018-Apr-20 11:30N 59°41' E 028°25'0 0.0
2018-Apr-20 11:00N 59°41' E 028°25'0 0.0
2018-Apr-20 10:30N 59°41' E 028°25'0 0.0
2018-Apr-20 10:00N 59°41' E 028°25'0 0.0
2018-Apr-20 09:30N 59°41' E 028°25'0 0.0
2018-Apr-20 09:00N 59°41' E 028°25'0 0.0
2018-Apr-20 08:30N 59°41' E 028°25'0 0.0
2018-Apr-20 08:00N 59°41' E 028°25'0 0.0
2018-Apr-20 07:30N 59°41' E 028°25'0 0.0
2018-Apr-20 07:00N 59°41' E 028°25'0 0.0
2018-Apr-20 06:30N 59°41' E 028°25'0 0.0
2018-Apr-20 06:00N 59°41' E 028°25'0 0.0
2018-Apr-20 05:30N 59°41' E 028°25'0 0.0
2018-Apr-20 05:00N 59°41' E 028°25'0 0.0
2018-Apr-20 04:21N 59°41' E 028°25'0 0.0
2018-Apr-20 03:57N 59°41' E 028°25'0 0.0
2018-Apr-20 03:27N 59°41' E 028°25'0 0.0
2018-Apr-20 03:00N 59°41' E 028°25'0 0.0
2018-Apr-20 02:30N 59°41' E 028°25'0 0.0
2018-Apr-20 02:00N 59°41' E 028°25'0 0.0
2018-Apr-20 01:30N 59°41' E 028°25'0 0.0
2018-Apr-20 01:00N 59°41' E 028°25'0 0.0
2018-Apr-20 00:30N 59°41' E 028°25'0 0.0
2018-Apr-20 00:00N 59°41' E 028°25'0 0.0
2018-Apr-19 23:30N 59°41' E 028°25'0 0.0
2018-Apr-19 23:00N 59°41' E 028°25'0 0.0
2018-Apr-19 22:27N 59°41' E 028°25'0 0.0
2018-Apr-19 22:00N 59°41' E 028°25'0 0.0
2018-Apr-19 21:27N 59°41' E 028°25'0 0.0
2018-Apr-19 21:00N 59°41' E 028°25'0 0.0
2018-Apr-19 20:30N 59°41' E 028°25'0 0.0
2018-Apr-19 20:00N 59°41' E 028°25'0 0.0
2018-Apr-19 19:30N 59°41' E 028°25'0 0.0
2018-Apr-19 19:00N 59°41' E 028°25'0 0.0
2018-Apr-19 18:30N 59°41' E 028°25'0 0.0
2018-Apr-19 18:00N 59°41' E 028°25'0 0.0
2018-Apr-19 17:30N 59°41' E 028°25'0 0.0
2018-Apr-19 17:00N 59°41' E 028°25'0 0.0
2018-Apr-19 16:30N 59°41' E 028°25'0 0.0
2018-Apr-19 16:00N 59°41' E 028°25'0 0.0
2018-Apr-19 15:30N 59°41' E 028°25'0 0.0
2018-Apr-19 15:00N 59°41' E 028°25'0 0.0
2018-Apr-19 14:30N 59°41' E 028°25'0 0.0
2018-Apr-19 14:00N 59°41' E 028°25'0 0.0
2018-Apr-19 13:30N 59°41' E 028°25'0 0.0
2018-Apr-19 13:00N 59°41' E 028°25'0 0.0
2018-Apr-19 12:30N 59°41' E 028°25'0 0.2
2018-Apr-19 12:00N 59°41' E 028°25'2 3.7
2018-Apr-19 11:30N 59°43' E 028°24'4 7.7
2018-Apr-19 11:01N 59°47' E 028°24'5 9.5
2018-Apr-19 10:31N 59°51' E 028°27'4 8.8
2018-Apr-19 10:00N 59°55' E 028°32'2 4.4
2018-Apr-19 09:31N 59°55' E 028°37'1 2.9
2018-Apr-19 09:00N 59°56' E 028°39'0 0.2
2018-Apr-19 08:30N 59°56' E 028°40'0 0.1
2018-Apr-19 07:57N 59°56' E 028°40'0 0.1
2018-Apr-19 07:30N 59°56' E 028°40'0 0.1
2018-Apr-19 07:00N 59°55' E 028°40'0 0.0
2018-Apr-19 06:30N 59°55' E 028°40'0 0.0
2018-Apr-19 06:00N 59°55' E 028°40'0 0.0
2018-Apr-19 05:30N 59°55' E 028°40'0 0.0
2018-Apr-19 05:00N 59°55' E 028°40'0 0.0
2018-Apr-19 04:27N 59°55' E 028°40'0 0.0
2018-Apr-19 04:00N 59°56' E 028°40'0 0.0
2018-Apr-19 03:30N 59°56' E 028°40'0 0.0
2018-Apr-19 02:57N 59°56' E 028°40'0 0.0
2018-Apr-19 02:24N 59°56' E 028°40'0 0.0
2018-Apr-19 02:00N 59°56' E 028°40'0 0.0
2018-Apr-19 01:24N 59°56' E 028°40'0 0.0
2018-Apr-19 00:57N 59°56' E 028°40'0 0.0
2018-Apr-19 00:30N 59°56' E 028°40'0 0.0
2018-Apr-18 23:57N 59°56' E 028°40'0 0.0
2018-Apr-18 23:30N 59°56' E 028°40'0 0.0
2018-Apr-18 22:57N 59°56' E 028°40'0 0.0
2018-Apr-18 22:27N 59°56' E 028°40'0 0.0
2018-Apr-18 21:58N 59°56' E 028°40'0 0.1
2018-Apr-18 21:30N 59°56' E 028°40'0 0.0
2018-Apr-18 21:00N 59°56' E 028°40'0 0.0
2018-Apr-18 20:30N 59°56' E 028°40'0 0.1
2018-Apr-18 20:00N 59°56' E 028°40'0 0.1
2018-Apr-18 19:15N 59°56' E 028°40'0 0.0
2018-Apr-18 19:00N 59°56' E 028°40'0 0.1
2018-Apr-18 18:30N 59°56' E 028°40'0 0.2
2018-Apr-18 18:00N 59°55' E 028°40'0 0.2
2018-Apr-18 17:18N 59°55' E 028°40'0 0.1
2018-Apr-18 17:00N 59°55' E 028°40'0 0.0
2018-Apr-18 16:30N 59°55' E 028°40'0 0.1
2018-Apr-18 16:00N 59°55' E 028°40'0 0.1
2018-Apr-18 15:30N 59°55' E 028°40'0 0.0
2018-Apr-18 15:00N 59°55' E 028°40'0 0.1
2018-Apr-18 14:30N 59°55' E 028°40'0 0.0
2018-Apr-18 14:00N 59°55' E 028°40'0 0.0
2018-Apr-18 13:30N 59°55' E 028°40'0 0.0
2018-Apr-18 13:00N 59°55' E 028°40'0 0.1
2018-Apr-18 12:30N 59°55' E 028°40'0 0.1
2018-Apr-18 12:00N 59°55' E 028°40'0 0.0
2018-Apr-18 11:30N 59°55' E 028°40'0 0.0
2018-Apr-18 11:00N 59°55' E 028°40'0 0.1
2018-Apr-18 10:30N 59°55' E 028°40'0 0.2
2018-Apr-18 09:57N 59°55' E 028°39'0 0.1
2018-Apr-18 09:30N 59°55' E 028°39'0 0.0
2018-Apr-18 09:00N 59°55' E 028°39'0 0.0
2018-Apr-18 08:27N 59°55' E 028°39'0 0.0
2018-Apr-18 07:57N 59°55' E 028°39'0 0.0
2018-Apr-18 07:24N 59°55' E 028°39'0 0.0
2018-Apr-18 06:57N 59°55' E 028°39'0 0.0
2018-Apr-18 06:27N 59°55' E 028°39'0 0.0
2018-Apr-18 05:57N 59°55' E 028°39'0 0.0
2018-Apr-18 05:27N 59°55' E 028°39'0 0.0
2018-Apr-18 05:00N 59°55' E 028°39'0 0.0
2018-Apr-18 04:30N 59°55' E 028°39'0 0.0
2018-Apr-18 04:00N 59°55' E 028°40'0 0.0
2018-Apr-18 03:27N 59°55' E 028°40'0 0.0
2018-Apr-18 02:57N 59°55' E 028°40'0 0.1
2018-Apr-18 02:27N 59°55' E 028°40'0 0.0
2018-Apr-18 01:57N 59°55' E 028°40'0 0.0
2018-Apr-18 01:30N 59°55' E 028°40'0 0.0
2018-Apr-18 00:54N 59°55' E 028°40'0 0.0
2018-Apr-18 00:30N 59°55' E 028°40'0 0.0
2018-Apr-18 00:00N 59°55' E 028°40'0 0.0
2018-Apr-17 23:30N 59°55' E 028°40'0 0.0
2018-Apr-17 22:54N 59°55' E 028°40'0 0.0
2018-Apr-17 22:21N 59°55' E 028°40'0 0.0
2018-Apr-17 22:00N 59°55' E 028°40'0 0.0
2018-Apr-17 21:27N 59°55' E 028°40'0 0.0
2018-Apr-17 20:54N 59°55' E 028°40'0 0.0
2018-Apr-17 20:24N 59°55' E 028°40'0 0.0
2018-Apr-17 19:54N 59°55' E 028°40'0 0.0
2018-Apr-17 19:24N 59°55' E 028°40'0 0.0
2018-Apr-17 18:54N 59°55' E 028°40'0 0.0
2018-Apr-17 18:27N 59°55' E 028°40'0 0.0
2018-Apr-17 17:57N 59°55' E 028°40'0 0.0
2018-Apr-17 17:27N 59°55' E 028°40'0 0.0
2018-Apr-17 16:54N 59°55' E 028°40'0 0.0
2018-Apr-17 16:27N 59°55' E 028°40'0 0.0
2018-Apr-17 15:57N 59°55' E 028°40'0 0.0
2018-Apr-17 15:27N 59°55' E 028°40'0 0.0
2018-Apr-17 15:00N 59°55' E 028°40'0 0.0
2018-Apr-17 14:30N 59°55' E 028°40'0 0.0
2018-Apr-17 14:00N 59°55' E 028°40'0 0.0
2018-Apr-17 13:30N 59°55' E 028°40'0 0.0
2018-Apr-17 13:00N 59°55' E 028°40'0 0.0
2018-Apr-17 12:30N 59°55' E 028°40'0 0.0
2018-Apr-17 12:00N 59°55' E 028°40'0 0.0
2018-Apr-17 11:30N 59°55' E 028°40'0 0.0
2018-Apr-17 10:48N 59°55' E 028°40'0 0.0
2018-Apr-17 10:18N 59°55' E 028°40'0 0.0
2018-Apr-17 10:00N 59°55' E 028°40'0 0.0
2018-Apr-17 09:30N 59°55' E 028°40'0 0.0
2018-Apr-17 09:00N 59°55' E 028°40'0 0.2
2018-Apr-17 08:18N 59°56' E 028°40'0 0.3
2018-Apr-17 08:00N 59°56' E 028°39'0 0.2
2018-Apr-17 07:21N 59°56' E 028°39'0 0.0
2018-Apr-17 06:51N 59°56' E 028°39'0 0.1
2018-Apr-17 06:21N 59°55' E 028°39'0 0.0
2018-Apr-17 05:51N 59°55' E 028°39'0 0.1
2018-Apr-17 05:24N 59°55' E 028°39'0 0.0
2018-Apr-17 04:48N 59°56' E 028°39'0 0.0
2018-Apr-17 04:24N 59°56' E 028°39'0 0.0
2018-Apr-17 03:54N 59°56' E 028°39'0 0.0
2018-Apr-17 03:24N 59°56' E 028°39'0 0.1
2018-Apr-17 02:57N 59°56' E 028°39'0 0.0
2018-Apr-17 02:27N 59°56' E 028°39'0 0.0
2018-Apr-17 01:57N 59°56' E 028°39'0 0.0
2018-Apr-17 01:24N 59°56' E 028°39'0 0.0
2018-Apr-17 00:56N 59°56' E 028°39'0 0.1
2018-Apr-17 00:30N 59°56' E 028°39'0 0.0
2018-Apr-17 00:00N 59°56' E 028°39'0 0.0
2018-Apr-16 23:30N 59°55' E 028°39'0 0.0
2018-Apr-16 22:59N 59°55' E 028°39'0 0.0
2018-Apr-16 22:30N 59°56' E 028°39'0 0.1
2018-Apr-16 21:56N 59°56' E 028°39'0 0.0
2018-Apr-16 21:29N 59°56' E 028°39'0 0.0
2018-Apr-16 20:54N 59°56' E 028°39'0 0.0
2018-Apr-16 20:30N 59°56' E 028°39'0 0.0
2018-Apr-16 20:00N 59°56' E 028°39'0 0.1
2018-Apr-16 19:30N 59°56' E 028°39'0 0.0
2018-Apr-16 19:00N 59°56' E 028°39'0 0.1
2018-Apr-16 18:30N 59°56' E 028°39'0 0.0
2018-Apr-16 18:00N 59°56' E 028°39'0 0.1
2018-Apr-16 17:26N 59°56' E 028°39'0 0.1
2018-Apr-16 17:00N 59°56' E 028°39'0 0.0
2018-Apr-16 16:30N 59°56' E 028°39'0 0.1
2018-Apr-16 16:00N 59°55' E 028°39'0 0.1
2018-Apr-16 15:30N 59°55' E 028°39'0 0.1
2018-Apr-16 15:00N 59°55' E 028°39'0 0.1
2018-Apr-16 14:30N 59°55' E 028°39'0 0.0
2018-Apr-16 13:54N 59°55' E 028°39'0 0.1
2018-Apr-16 13:24N 59°55' E 028°39'0 0.0
2018-Apr-16 12:53N 59°55' E 028°39'0 0.0
2018-Apr-16 12:30N 59°55' E 028°39'0 0.1
2018-Apr-16 11:57N 59°55' E 028°39'0 0.0
2018-Apr-16 11:12N 59°55' E 028°39'0 0.0
2018-Apr-16 11:00N 59°55' E 028°39'0 0.1
2018-Apr-16 10:30N 59°55' E 028°40'0 0.1
2018-Apr-16 09:57N 59°55' E 028°40'0 0.1
2018-Apr-16 09:26N 59°55' E 028°40'0 0.1
2018-Apr-16 08:56N 59°55' E 028°40'0 0.0
2018-Apr-16 08:30N 59°55' E 028°40'0 0.0
2018-Apr-16 07:56N 59°55' E 028°40'0 0.0
2018-Apr-16 07:26N 59°55' E 028°40'0 0.0
2018-Apr-16 07:00N 59°55' E 028°40'0 0.0
2018-Apr-16 06:29N 59°55' E 028°40'0 0.0
2018-Apr-16 05:59N 59°55' E 028°40'0 0.0
2018-Apr-16 05:30N 59°55' E 028°40'  

Dump ship's entire track history